sensor_id;sensor_type;location;lat;lon;timestamp;P1;durP1;ratioP1;P2;durP2;ratioP2
21743;SDS011;11034;48.556;9.342;2023-12-04T00:00:28;11.18;;;5.82;;
21743;SDS011;11034;48.556;9.342;2023-12-04T00:02:57;9.38;;;5.57;;
21743;SDS011;11034;48.556;9.342;2023-12-04T00:05:26;8.27;;;4.95;;
21743;SDS011;11034;48.556;9.342;2023-12-04T00:07:56;9.10;;;5.18;;
21743;SDS011;11034;48.556;9.342;2023-12-04T00:10:24;8.70;;;5.15;;
21743;SDS011;11034;48.556;9.342;2023-12-04T00:12:53;8.63;;;4.97;;
21743;SDS011;11034;48.556;9.342;2023-12-04T00:15:21;7.88;;;4.85;;
21743;SDS011;11034;48.556;9.342;2023-12-04T00:17:50;9.07;;;4.70;;
21743;SDS011;11034;48.556;9.342;2023-12-04T00:20:18;10.23;;;5.35;;
21743;SDS011;11034;48.556;9.342;2023-12-04T00:22:48;10.40;;;5.20;;
21743;SDS011;11034;48.556;9.342;2023-12-04T00:25:16;9.20;;;5.60;;
21743;SDS011;11034;48.556;9.342;2023-12-04T00:27:45;9.75;;;5.05;;
21743;SDS011;11034;48.556;9.342;2023-12-04T00:30:13;7.63;;;4.55;;
21743;SDS011;11034;48.556;9.342;2023-12-04T00:32:41;10.52;;;5.43;;
21743;SDS011;11034;48.556;9.342;2023-12-04T00:35:09;8.20;;;5.10;;
21743;SDS011;11034;48.556;9.342;2023-12-04T00:37:37;10.68;;;5.15;;
21743;SDS011;11034;48.556;9.342;2023-12-04T00:40:07;7.78;;;4.43;;
21743;SDS011;11034;48.556;9.342;2023-12-04T00:42:36;7.70;;;4.72;;
21743;SDS011;11034;48.556;9.342;2023-12-04T00:45:05;8.70;;;4.75;;
21743;SDS011;11034;48.556;9.342;2023-12-04T00:47:33;7.68;;;4.57;;
21743;SDS011;11034;48.556;9.342;2023-12-04T00:50:02;9.48;;;4.72;;
21743;SDS011;11034;48.556;9.342;2023-12-04T00:52:30;8.75;;;4.97;;
21743;SDS011;11034;48.556;9.342;2023-12-04T00:54:59;8.85;;;5.05;;
21743;SDS011;11034;48.556;9.342;2023-12-04T00:57:28;8.82;;;4.40;;
21743;SDS011;11034;48.556;9.342;2023-12-04T00:59:57;10.38;;;4.55;;
21743;SDS011;11034;48.556;9.342;2023-12-04T01:02:25;8.00;;;4.05;;
21743;SDS011;11034;48.556;9.342;2023-12-04T01:04:54;6.43;;;3.88;;
21743;SDS011;11034;48.556;9.342;2023-12-04T01:07:22;6.53;;;3.83;;
21743;SDS011;11034;48.556;9.342;2023-12-04T01:09:50;6.03;;;3.63;;
21743;SDS011;11034;48.556;9.342;2023-12-04T01:12:19;5.38;;;3.42;;
21743;SDS011;11034;48.556;9.342;2023-12-04T01:14:48;5.70;;;3.55;;
21743;SDS011;11034;48.556;9.342;2023-12-04T01:17:17;6.63;;;3.92;;
21743;SDS011;11034;48.556;9.342;2023-12-04T01:19:45;6.95;;;4.28;;
21743;SDS011;11034;48.556;9.342;2023-12-04T01:22:14;5.97;;;3.55;;
21743;SDS011;11034;48.556;9.342;2023-12-04T01:24:42;6.60;;;4.13;;
21743;SDS011;11034;48.556;9.342;2023-12-04T01:27:10;9.45;;;5.40;;
21743;SDS011;11034;48.556;9.342;2023-12-04T01:29:39;12.70;;;6.70;;
21743;SDS011;11034;48.556;9.342;2023-12-04T01:32:08;13.23;;;6.55;;
21743;SDS011;11034;48.556;9.342;2023-12-04T01:34:37;12.57;;;6.95;;
21743;SDS011;11034;48.556;9.342;2023-12-04T01:37:05;16.48;;;9.07;;
21743;SDS011;11034;48.556;9.342;2023-12-04T01:39:33;16.02;;;8.63;;
21743;SDS011;11034;48.556;9.342;2023-12-04T01:42:03;11.10;;;5.97;;
21743;SDS011;11034;48.556;9.342;2023-12-04T01:44:31;6.25;;;3.70;;
21743;SDS011;11034;48.556;9.342;2023-12-04T01:46:59;6.32;;;3.63;;
21743;SDS011;11034;48.556;9.342;2023-12-04T01:49:32;5.63;;;3.47;;
21743;SDS011;11034;48.556;9.342;2023-12-04T01:52:00;5.97;;;3.40;;
21743;SDS011;11034;48.556;9.342;2023-12-04T01:54:29;6.25;;;3.53;;
21743;SDS011;11034;48.556;9.342;2023-12-04T01:56:57;6.93;;;3.45;;
21743;SDS011;11034;48.556;9.342;2023-12-04T01:59:26;6.88;;;3.63;;
21743;SDS011;11034;48.556;9.342;2023-12-04T02:01:55;5.13;;;3.47;;
21743;SDS011;11034;48.556;9.342;2023-12-04T02:04:24;5.35;;;3.30;;
21743;SDS011;11034;48.556;9.342;2023-12-04T02:06:54;6.00;;;3.40;;
21743;SDS011;11034;48.556;9.342;2023-12-04T02:09:23;7.18;;;4.05;;
21743;SDS011;11034;48.556;9.342;2023-12-04T02:11:53;7.05;;;3.67;;
21743;SDS011;11034;48.556;9.342;2023-12-04T02:14:24;7.20;;;4.40;;
21743;SDS011;11034;48.556;9.342;2023-12-04T02:16:53;8.25;;;4.07;;
21743;SDS011;11034;48.556;9.342;2023-12-04T02:19:22;6.97;;;3.67;;
21743;SDS011;11034;48.556;9.342;2023-12-04T02:21:51;7.82;;;4.45;;
21743;SDS011;11034;48.556;9.342;2023-12-04T02:24:21;5.93;;;3.80;;
21743;SDS011;11034;48.556;9.342;2023-12-04T02:26:52;5.60;;;3.50;;
21743;SDS011;11034;48.556;9.342;2023-12-04T02:29:22;6.75;;;3.80;;
21743;SDS011;11034;48.556;9.342;2023-12-04T02:31:51;4.72;;;3.20;;
21743;SDS011;11034;48.556;9.342;2023-12-04T02:34:22;4.88;;;2.90;;
21743;SDS011;11034;48.556;9.342;2023-12-04T02:36:51;4.82;;;3.03;;
21743;SDS011;11034;48.556;9.342;2023-12-04T02:39:24;4.65;;;2.72;;
21743;SDS011;11034;48.556;9.342;2023-12-04T02:41:53;4.63;;;2.70;;
21743;SDS011;11034;48.556;9.342;2023-12-04T02:44:23;5.20;;;2.88;;
21743;SDS011;11034;48.556;9.342;2023-12-04T02:46:52;4.40;;;2.63;;
21743;SDS011;11034;48.556;9.342;2023-12-04T02:49:20;3.67;;;2.47;;
21743;SDS011;11034;48.556;9.342;2023-12-04T02:51:48;3.00;;;1.90;;
21743;SDS011;11034;48.556;9.342;2023-12-04T02:54:17;4.50;;;2.40;;
21743;SDS011;11034;48.556;9.342;2023-12-04T02:56:46;3.67;;;2.42;;
21743;SDS011;11034;48.556;9.342;2023-12-04T02:59:15;3.17;;;2.10;;
21743;SDS011;11034;48.556;9.342;2023-12-04T03:01:43;4.63;;;3.00;;
21743;SDS011;11034;48.556;9.342;2023-12-04T03:04:12;7.10;;;4.03;;
21743;SDS011;11034;48.556;9.342;2023-12-04T03:06:40;6.05;;;3.80;;
21743;SDS011;11034;48.556;9.342;2023-12-04T03:09:08;4.90;;;2.60;;
21743;SDS011;11034;48.556;9.342;2023-12-04T03:11:39;4.32;;;2.60;;
21743;SDS011;11034;48.556;9.342;2023-12-04T03:14:09;4.55;;;2.72;;
21743;SDS011;11034;48.556;9.342;2023-12-04T03:16:37;4.25;;;2.47;;
21743;SDS011;11034;48.556;9.342;2023-12-04T03:19:05;4.25;;;2.50;;
21743;SDS011;11034;48.556;9.342;2023-12-04T03:21:34;4.43;;;2.58;;
21743;SDS011;11034;48.556;9.342;2023-12-04T03:24:02;4.72;;;3.10;;
21743;SDS011;11034;48.556;9.342;2023-12-04T03:26:30;7.05;;;2.85;;
21743;SDS011;11034;48.556;9.342;2023-12-04T03:28:59;5.60;;;2.97;;
21743;SDS011;11034;48.556;9.342;2023-12-04T03:31:28;5.45;;;3.28;;
21743;SDS011;11034;48.556;9.342;2023-12-04T03:33:57;6.78;;;4.30;;
21743;SDS011;11034;48.556;9.342;2023-12-04T03:36:26;6.93;;;4.38;;
21743;SDS011;11034;48.556;9.342;2023-12-04T03:38:54;8.77;;;4.05;;
21743;SDS011;11034;48.556;9.342;2023-12-04T03:41:22;8.45;;;4.80;;
21743;SDS011;11034;48.556;9.342;2023-12-04T03:43:51;9.73;;;5.20;;
21743;SDS011;11034;48.556;9.342;2023-12-04T03:46:19;8.75;;;4.50;;
21743;SDS011;11034;48.556;9.342;2023-12-04T03:48:49;8.98;;;5.10;;
21743;SDS011;11034;48.556;9.342;2023-12-04T03:51:17;7.72;;;4.63;;
21743;SDS011;11034;48.556;9.342;2023-12-04T03:53:46;6.43;;;3.88;;
21743;SDS011;11034;48.556;9.342;2023-12-04T03:56:14;6.45;;;4.28;;
21743;SDS011;11034;48.556;9.342;2023-12-04T03:58:42;8.20;;;4.63;;
21743;SDS011;11034;48.556;9.342;2023-12-04T04:01:11;8.35;;;4.70;;
21743;SDS011;11034;48.556;9.342;2023-12-04T04:03:39;6.82;;;3.70;;
21743;SDS011;11034;48.556;9.342;2023-12-04T04:06:12;5.20;;;3.00;;
21743;SDS011;11034;48.556;9.342;2023-12-04T04:08:41;5.07;;;3.30;;
21743;SDS011;11034;48.556;9.342;2023-12-04T04:11:10;7.97;;;4.80;;
21743;SDS011;11034;48.556;9.342;2023-12-04T04:13:39;12.40;;;6.95;;
21743;SDS011;11034;48.556;9.342;2023-12-04T04:16:07;16.40;;;8.95;;
21743;SDS011;11034;48.556;9.342;2023-12-04T04:18:36;19.35;;;10.02;;
21743;SDS011;11034;48.556;9.342;2023-12-04T04:21:04;20.23;;;10.65;;
21743;SDS011;11034;48.556;9.342;2023-12-04T04:23:34;16.58;;;9.27;;
21743;SDS011;11034;48.556;9.342;2023-12-04T04:26:03;16.65;;;8.52;;
21743;SDS011;11034;48.556;9.342;2023-12-04T04:28:31;10.05;;;6.00;;
21743;SDS011;11034;48.556;9.342;2023-12-04T04:31:00;9.70;;;4.75;;
21743;SDS011;11034;48.556;9.342;2023-12-04T04:33:28;7.50;;;4.20;;
21743;SDS011;11034;48.556;9.342;2023-12-04T04:35:56;7.72;;;3.97;;
21743;SDS011;11034;48.556;9.342;2023-12-04T04:38:25;10.50;;;6.07;;
21743;SDS011;11034;48.556;9.342;2023-12-04T04:40:57;11.10;;;6.05;;
21743;SDS011;11034;48.556;9.342;2023-12-04T04:43:26;6.43;;;3.85;;
21743;SDS011;11034;48.556;9.342;2023-12-04T04:45:55;5.82;;;3.33;;
21743;SDS011;11034;48.556;9.342;2023-12-04T04:48:23;6.10;;;3.42;;
21743;SDS011;11034;48.556;9.342;2023-12-04T04:50:52;7.32;;;4.00;;
21743;SDS011;11034;48.556;9.342;2023-12-04T04:53:24;6.80;;;3.90;;
21743;SDS011;11034;48.556;9.342;2023-12-04T04:55:54;8.40;;;4.20;;
21743;SDS011;11034;48.556;9.342;2023-12-04T04:58:24;9.18;;;4.93;;
21743;SDS011;11034;48.556;9.342;2023-12-04T05:00:53;12.25;;;6.57;;
21743;SDS011;11034;48.556;9.342;2023-12-04T05:03:21;12.63;;;6.93;;
21743;SDS011;11034;48.556;9.342;2023-12-04T05:05:50;10.65;;;6.35;;
21743;SDS011;11034;48.556;9.342;2023-12-04T05:08:19;10.57;;;5.40;;
21743;SDS011;11034;48.556;9.342;2023-12-04T05:10:47;11.63;;;5.75;;
21743;SDS011;11034;48.556;9.342;2023-12-04T05:13:17;10.57;;;6.10;;
21743;SDS011;11034;48.556;9.342;2023-12-04T05:15:45;9.70;;;5.38;;
21743;SDS011;11034;48.556;9.342;2023-12-04T05:18:13;10.90;;;6.00;;
21743;SDS011;11034;48.556;9.342;2023-12-04T05:20:42;9.02;;;5.10;;
21743;SDS011;11034;48.556;9.342;2023-12-04T05:23:10;10.35;;;6.00;;
21743;SDS011;11034;48.556;9.342;2023-12-04T05:25:39;10.95;;;6.38;;
21743;SDS011;11034;48.556;9.342;2023-12-04T05:28:16;10.27;;;5.85;;
21743;SDS011;11034;48.556;9.342;2023-12-04T05:30:45;10.82;;;5.80;;
21743;SDS011;11034;48.556;9.342;2023-12-04T05:33:13;10.18;;;5.88;;
21743;SDS011;11034;48.556;9.342;2023-12-04T05:35:42;11.20;;;6.07;;
21743;SDS011;11034;48.556;9.342;2023-12-04T05:38:10;45.58;;;9.75;;
21743;SDS011;11034;48.556;9.342;2023-12-04T05:40:39;9.95;;;5.72;;
21743;SDS011;11034;48.556;9.342;2023-12-04T05:43:08;10.60;;;5.78;;
21743;SDS011;11034;48.556;9.342;2023-12-04T05:45:42;10.30;;;5.57;;
21743;SDS011;11034;48.556;9.342;2023-12-04T05:48:10;9.90;;;5.47;;
21743;SDS011;11034;48.556;9.342;2023-12-04T05:50:39;11.48;;;6.43;;
21743;SDS011;11034;48.556;9.342;2023-12-04T05:53:07;9.20;;;5.30;;
21743;SDS011;11034;48.556;9.342;2023-12-04T05:55:35;11.20;;;6.00;;
21743;SDS011;11034;48.556;9.342;2023-12-04T05:58:04;9.93;;;5.47;;
21743;SDS011;11034;48.556;9.342;2023-12-04T06:00:32;10.95;;;5.88;;
21743;SDS011;11034;48.556;9.342;2023-12-04T06:03:02;13.48;;;8.02;;
21743;SDS011;11034;48.556;9.342;2023-12-04T06:05:31;11.18;;;6.13;;
21743;SDS011;11034;48.556;9.342;2023-12-04T06:08:01;8.88;;;5.50;;
21743;SDS011;11034;48.556;9.342;2023-12-04T06:10:29;9.90;;;5.50;;
21743;SDS011;11034;48.556;9.342;2023-12-04T06:12:58;9.10;;;5.05;;
21743;SDS011;11034;48.556;9.342;2023-12-04T06:15:26;9.45;;;5.05;;
21743;SDS011;11034;48.556;9.342;2023-12-04T06:17:58;14.73;;;8.02;;
21743;SDS011;11034;48.556;9.342;2023-12-04T06:20:28;17.80;;;9.38;;
21743;SDS011;11034;48.556;9.342;2023-12-04T06:22:57;12.70;;;6.65;;
21743;SDS011;11034;48.556;9.342;2023-12-04T06:25:25;11.98;;;7.15;;
21743;SDS011;11034;48.556;9.342;2023-12-04T06:27:57;13.13;;;7.47;;
21743;SDS011;11034;48.556;9.342;2023-12-04T06:30:27;13.55;;;8.15;;
21743;SDS011;11034;48.556;9.342;2023-12-04T06:32:56;12.40;;;7.22;;
21743;SDS011;11034;48.556;9.342;2023-12-04T06:35:25;10.65;;;6.20;;
21743;SDS011;11034;48.556;9.342;2023-12-04T06:37:55;12.00;;;6.90;;
21743;SDS011;11034;48.556;9.342;2023-12-04T06:40:24;12.50;;;7.28;;
21743;SDS011;11034;48.556;9.342;2023-12-04T06:42:52;9.57;;;5.72;;
21743;SDS011;11034;48.556;9.342;2023-12-04T06:45:21;9.57;;;5.85;;
21743;SDS011;11034;48.556;9.342;2023-12-04T06:47:50;12.02;;;6.25;;
21743;SDS011;11034;48.556;9.342;2023-12-04T06:50:18;13.10;;;6.95;;
21743;SDS011;11034;48.556;9.342;2023-12-04T06:52:47;10.18;;;5.88;;
21743;SDS011;11034;48.556;9.342;2023-12-04T06:55:17;11.52;;;6.75;;
21743;SDS011;11034;48.556;9.342;2023-12-04T06:57:45;10.63;;;6.15;;
21743;SDS011;11034;48.556;9.342;2023-12-04T07:00:14;11.10;;;6.35;;
21743;SDS011;11034;48.556;9.342;2023-12-04T07:02:48;12.45;;;7.63;;
21743;SDS011;11034;48.556;9.342;2023-12-04T07:05:17;17.40;;;8.50;;
21743;SDS011;11034;48.556;9.342;2023-12-04T07:07:46;15.07;;;8.77;;
21743;SDS011;11034;48.556;9.342;2023-12-04T07:10:14;11.93;;;7.30;;
21743;SDS011;11034;48.556;9.342;2023-12-04T07:12:44;12.15;;;7.43;;
21743;SDS011;11034;48.556;9.342;2023-12-04T07:15:13;11.65;;;6.90;;
21743;SDS011;11034;48.556;9.342;2023-12-04T07:17:41;16.65;;;8.38;;
21743;SDS011;11034;48.556;9.342;2023-12-04T07:20:10;15.45;;;8.25;;
21743;SDS011;11034;48.556;9.342;2023-12-04T07:22:39;14.05;;;8.00;;
21743;SDS011;11034;48.556;9.342;2023-12-04T07:25:09;12.25;;;6.80;;
21743;SDS011;11034;48.556;9.342;2023-12-04T07:27:37;13.95;;;7.97;;
21743;SDS011;11034;48.556;9.342;2023-12-04T07:30:08;12.38;;;6.45;;
21743;SDS011;11034;48.556;9.342;2023-12-04T07:32:38;10.30;;;6.10;;
21743;SDS011;11034;48.556;9.342;2023-12-04T07:35:07;11.50;;;5.80;;
21743;SDS011;11034;48.556;9.342;2023-12-04T07:37:36;9.50;;;5.40;;
21743;SDS011;11034;48.556;9.342;2023-12-04T07:40:05;14.70;;;8.80;;
21743;SDS011;11034;48.556;9.342;2023-12-04T07:42:36;12.43;;;6.57;;
21743;SDS011;11034;48.556;9.342;2023-12-04T07:45:09;23.73;;;11.93;;
21743;SDS011;11034;48.556;9.342;2023-12-04T07:47:37;21.15;;;10.82;;
21743;SDS011;11034;48.556;9.342;2023-12-04T07:50:06;26.83;;;14.80;;
21743;SDS011;11034;48.556;9.342;2023-12-04T07:52:35;29.30;;;13.93;;
21743;SDS011;11034;48.556;9.342;2023-12-04T07:55:03;33.60;;;15.82;;
21743;SDS011;11034;48.556;9.342;2023-12-04T07:57:33;35.15;;;15.73;;
21743;SDS011;11034;48.556;9.342;2023-12-04T08:00:02;28.85;;;16.00;;
21743;SDS011;11034;48.556;9.342;2023-12-04T08:02:31;29.80;;;15.50;;
21743;SDS011;11034;48.556;9.342;2023-12-04T08:04:59;29.95;;;15.82;;
21743;SDS011;11034;48.556;9.342;2023-12-04T08:07:27;27.67;;;15.85;;
21743;SDS011;11034;48.556;9.342;2023-12-04T08:09:56;27.02;;;15.23;;
21743;SDS011;11034;48.556;9.342;2023-12-04T08:12:25;78.10;;;28.20;;
21743;SDS011;11034;48.556;9.342;2023-12-04T08:14:54;35.33;;;17.65;;
21743;SDS011;11034;48.556;9.342;2023-12-04T08:17:22;25.10;;;14.60;;
21743;SDS011;11034;48.556;9.342;2023-12-04T08:19:52;24.20;;;12.88;;
21743;SDS011;11034;48.556;9.342;2023-12-04T08:22:24;24.80;;;13.25;;
21743;SDS011;11034;48.556;9.342;2023-12-04T08:24:53;23.27;;;13.05;;
21743;SDS011;11034;48.556;9.342;2023-12-04T08:27:22;24.75;;;12.73;;
21743;SDS011;11034;48.556;9.342;2023-12-04T08:29:51;26.27;;;13.77;;
21743;SDS011;11034;48.556;9.342;2023-12-04T08:32:19;23.13;;;13.13;;
21743;SDS011;11034;48.556;9.342;2023-12-04T08:34:48;26.35;;;13.70;;
21743;SDS011;11034;48.556;9.342;2023-12-04T08:37:18;18.42;;;9.90;;
21743;SDS011;11034;48.556;9.342;2023-12-04T08:39:47;12.65;;;7.20;;
21743;SDS011;11034;48.556;9.342;2023-12-04T08:42:16;13.40;;;7.25;;
21743;SDS011;11034;48.556;9.342;2023-12-04T08:44:49;13.23;;;7.28;;
21743;SDS011;11034;48.556;9.342;2023-12-04T08:47:17;20.83;;;11.15;;
21743;SDS011;11034;48.556;9.342;2023-12-04T08:49:46;23.85;;;13.82;;
21743;SDS011;11034;48.556;9.342;2023-12-04T08:52:15;24.10;;;12.80;;
21743;SDS011;11034;48.556;9.342;2023-12-04T08:54:45;25.15;;;14.80;;
21743;SDS011;11034;48.556;9.342;2023-12-04T08:57:13;18.48;;;9.13;;
21743;SDS011;11034;48.556;9.342;2023-12-04T08:59:42;13.35;;;6.75;;
21743;SDS011;11034;48.556;9.342;2023-12-04T09:02:10;16.85;;;9.00;;
21743;SDS011;11034;48.556;9.342;2023-12-04T09:04:40;19.23;;;10.25;;
21743;SDS011;11034;48.556;9.342;2023-12-04T09:07:10;16.88;;;10.02;;
21743;SDS011;11034;48.556;9.342;2023-12-04T09:10:00;27.67;;;14.90;;
21743;SDS011;11034;48.556;9.342;2023-12-04T09:12:39;26.05;;;14.25;;
21743;SDS011;11034;48.556;9.342;2023-12-04T09:15:08;30.38;;;15.10;;
21743;SDS011;11034;48.556;9.342;2023-12-04T09:17:38;55.05;;;25.52;;
21743;SDS011;11034;48.556;9.342;2023-12-04T09:20:08;33.42;;;19.48;;
21743;SDS011;11034;48.556;9.342;2023-12-04T09:22:37;33.67;;;16.63;;
21743;SDS011;11034;48.556;9.342;2023-12-04T09:25:19;31.60;;;16.58;;
21743;SDS011;11034;48.556;9.342;2023-12-04T09:27:48;28.15;;;15.50;;
21743;SDS011;11034;48.556;9.342;2023-12-04T09:30:16;26.70;;;14.32;;
21743;SDS011;11034;48.556;9.342;2023-12-04T09:32:45;23.33;;;13.40;;
21743;SDS011;11034;48.556;9.342;2023-12-04T09:35:14;26.98;;;13.77;;
21743;SDS011;11034;48.556;9.342;2023-12-04T09:37:42;19.00;;;10.55;;
21743;SDS011;11034;48.556;9.342;2023-12-04T09:40:12;26.80;;;14.52;;
21743;SDS011;11034;48.556;9.342;2023-12-04T09:42:42;31.33;;;17.38;;
21743;SDS011;11034;48.556;9.342;2023-12-04T09:45:10;25.02;;;14.93;;
21743;SDS011;11034;48.556;9.342;2023-12-04T09:47:40;24.95;;;14.25;;
21743;SDS011;11034;48.556;9.342;2023-12-04T09:50:09;22.83;;;13.38;;
21743;SDS011;11034;48.556;9.342;2023-12-04T09:52:38;24.02;;;13.95;;
21743;SDS011;11034;48.556;9.342;2023-12-04T09:55:07;25.40;;;14.68;;
21743;SDS011;11034;48.556;9.342;2023-12-04T09:57:35;26.83;;;15.15;;
21743;SDS011;11034;48.556;9.342;2023-12-04T10:00:06;36.25;;;19.25;;
21743;SDS011;11034;48.556;9.342;2023-12-04T10:02:37;48.83;;;25.48;;
21743;SDS011;11034;48.556;9.342;2023-12-04T10:05:06;27.05;;;16.05;;
21743;SDS011;11034;48.556;9.342;2023-12-04T10:07:35;39.85;;;23.52;;
21743;SDS011;11034;48.556;9.342;2023-12-04T10:10:07;27.80;;;16.10;;
21743;SDS011;11034;48.556;9.342;2023-12-04T10:12:35;39.38;;;19.85;;
21743;SDS011;11034;48.556;9.342;2023-12-04T10:15:07;30.35;;;16.88;;
21743;SDS011;11034;48.556;9.342;2023-12-04T10:17:36;38.97;;;21.63;;
21743;SDS011;11034;48.556;9.342;2023-12-04T10:20:05;31.48;;;17.52;;
21743;SDS011;11034;48.556;9.342;2023-12-04T10:22:51;28.23;;;15.57;;
21743;SDS011;11034;48.556;9.342;2023-12-04T10:25:20;24.10;;;14.70;;
21743;SDS011;11034;48.556;9.342;2023-12-04T10:27:50;28.20;;;14.75;;
21743;SDS011;11034;48.556;9.342;2023-12-04T10:30:23;23.88;;;13.85;;
21743;SDS011;11034;48.556;9.342;2023-12-04T10:32:55;34.25;;;18.77;;
21743;SDS011;11034;48.556;9.342;2023-12-04T10:35:30;33.47;;;17.52;;
21743;SDS011;11034;48.556;9.342;2023-12-04T10:37:59;40.10;;;21.23;;
21743;SDS011;11034;48.556;9.342;2023-12-04T10:40:29;35.53;;;19.60;;
21743;SDS011;11034;48.556;9.342;2023-12-04T10:43:11;26.67;;;15.73;;
21743;SDS011;11034;48.556;9.342;2023-12-04T10:45:41;27.65;;;15.68;;
21743;SDS011;11034;48.556;9.342;2023-12-04T10:48:12;21.88;;;13.15;;
21743;SDS011;11034;48.556;9.342;2023-12-04T10:50:42;24.17;;;14.20;;
21743;SDS011;11034;48.556;9.342;2023-12-04T10:53:11;31.77;;;16.63;;
21743;SDS011;11034;48.556;9.342;2023-12-04T10:55:40;25.55;;;15.60;;
21743;SDS011;11034;48.556;9.342;2023-12-04T10:58:10;34.67;;;18.58;;
21743;SDS011;11034;48.556;9.342;2023-12-04T11:00:41;27.58;;;16.77;;
21743;SDS011;11034;48.556;9.342;2023-12-04T11:03:13;28.92;;;17.48;;
21743;SDS011;11034;48.556;9.342;2023-12-04T11:05:41;27.05;;;16.00;;
21743;SDS011;11034;48.556;9.342;2023-12-04T11:08:13;25.25;;;15.98;;
21743;SDS011;11034;48.556;9.342;2023-12-04T11:10:45;23.25;;;15.35;;
21743;SDS011;11034;48.556;9.342;2023-12-04T11:13:17;24.77;;;14.85;;
21743;SDS011;11034;48.556;9.342;2023-12-04T11:15:48;25.27;;;15.55;;
21743;SDS011;11034;48.556;9.342;2023-12-04T11:18:18;26.77;;;16.20;;
21743;SDS011;11034;48.556;9.342;2023-12-04T11:20:50;26.48;;;16.30;;
21743;SDS011;11034;48.556;9.342;2023-12-04T11:23:19;26.25;;;16.25;;
21743;SDS011;11034;48.556;9.342;2023-12-04T11:25:48;25.73;;;14.50;;
21743;SDS011;11034;48.556;9.342;2023-12-04T11:28:17;25.17;;;15.18;;
21743;SDS011;11034;48.556;9.342;2023-12-04T11:30:45;24.45;;;14.90;;
21743;SDS011;11034;48.556;9.342;2023-12-04T11:33:15;26.38;;;16.00;;
21743;SDS011;11034;48.556;9.342;2023-12-04T11:35:44;25.67;;;16.35;;
21743;SDS011;11034;48.556;9.342;2023-12-04T11:38:13;82.93;;;22.60;;
21743;SDS011;11034;48.556;9.342;2023-12-04T11:40:42;27.92;;;16.42;;
21743;SDS011;11034;48.556;9.342;2023-12-04T11:43:24;27.45;;;16.75;;
21743;SDS011;11034;48.556;9.342;2023-12-04T11:45:52;28.48;;;17.23;;
21743;SDS011;11034;48.556;9.342;2023-12-04T11:48:25;28.40;;;18.77;;
21743;SDS011;11034;48.556;9.342;2023-12-04T11:50:56;28.20;;;17.95;;
21743;SDS011;11034;48.556;9.342;2023-12-04T11:53:24;29.83;;;17.23;;
21743;SDS011;11034;48.556;9.342;2023-12-04T11:55:54;32.35;;;18.52;;
21743;SDS011;11034;48.556;9.342;2023-12-04T11:58:24;33.30;;;19.38;;
21743;SDS011;11034;48.556;9.342;2023-12-04T12:00:53;31.50;;;16.48;;
21743;SDS011;11034;48.556;9.342;2023-12-04T12:03:22;27.55;;;16.15;;
21743;SDS011;11034;48.556;9.342;2023-12-04T12:05:52;24.98;;;15.57;;
21743;SDS011;11034;48.556;9.342;2023-12-04T12:08:22;27.85;;;17.95;;
21743;SDS011;11034;48.556;9.342;2023-12-04T12:10:51;25.88;;;16.38;;
21743;SDS011;11034;48.556;9.342;2023-12-04T12:13:22;33.03;;;18.08;;
21743;SDS011;11034;48.556;9.342;2023-12-04T12:15:53;34.65;;;19.10;;
21743;SDS011;11034;48.556;9.342;2023-12-04T12:18:22;30.10;;;17.90;;
21743;SDS011;11034;48.556;9.342;2023-12-04T12:20:52;30.38;;;18.27;;
21743;SDS011;11034;48.556;9.342;2023-12-04T12:23:23;29.27;;;18.20;;
21743;SDS011;11034;48.556;9.342;2023-12-04T12:25:52;27.90;;;16.73;;
21743;SDS011;11034;48.556;9.342;2023-12-04T12:28:22;26.83;;;16.38;;
21743;SDS011;11034;48.556;9.342;2023-12-04T12:30:50;26.83;;;16.77;;
21743;SDS011;11034;48.556;9.342;2023-12-04T12:33:19;28.55;;;17.00;;
21743;SDS011;11034;48.556;9.342;2023-12-04T12:35:52;25.38;;;15.75;;
21743;SDS011;11034;48.556;9.342;2023-12-04T12:38:28;25.45;;;16.35;;
21743;SDS011;11034;48.556;9.342;2023-12-04T12:41:01;25.65;;;15.68;;
21743;SDS011;11034;48.556;9.342;2023-12-04T12:43:31;24.88;;;16.13;;
21743;SDS011;11034;48.556;9.342;2023-12-04T12:45:59;24.83;;;16.13;;
21743;SDS011;11034;48.556;9.342;2023-12-04T12:48:32;27.83;;;16.13;;
21743;SDS011;11034;48.556;9.342;2023-12-04T12:51:03;24.02;;;16.13;;
21743;SDS011;11034;48.556;9.342;2023-12-04T12:53:32;27.98;;;17.40;;
21743;SDS011;11034;48.556;9.342;2023-12-04T12:56:01;27.75;;;16.67;;
21743;SDS011;11034;48.556;9.342;2023-12-04T12:58:29;29.30;;;17.27;;
21743;SDS011;11034;48.556;9.342;2023-12-04T13:00:59;28.65;;;17.33;;
21743;SDS011;11034;48.556;9.342;2023-12-04T13:03:29;32.78;;;19.42;;
21743;SDS011;11034;48.556;9.342;2023-12-04T13:06:00;33.08;;;20.15;;
21743;SDS011;11034;48.556;9.342;2023-12-04T13:08:30;30.98;;;19.17;;
21743;SDS011;11034;48.556;9.342;2023-12-04T13:10:59;34.10;;;21.35;;
21743;SDS011;11034;48.556;9.342;2023-12-04T13:13:27;51.35;;;27.25;;
21743;SDS011;11034;48.556;9.342;2023-12-04T13:15:56;49.08;;;28.23;;
21743;SDS011;11034;48.556;9.342;2023-12-04T13:18:25;57.45;;;29.35;;
21743;SDS011;11034;48.556;9.342;2023-12-04T13:20:54;56.83;;;31.38;;
21743;SDS011;11034;48.556;9.342;2023-12-04T13:23:23;50.55;;;29.17;;
21743;SDS011;11034;48.556;9.342;2023-12-04T13:25:52;90.43;;;40.85;;
21743;SDS011;11034;48.556;9.342;2023-12-04T13:28:22;55.25;;;30.15;;
21743;SDS011;11034;48.556;9.342;2023-12-04T13:31:01;38.72;;;23.17;;
21743;SDS011;11034;48.556;9.342;2023-12-04T13:33:31;37.67;;;21.95;;
21743;SDS011;11034;48.556;9.342;2023-12-04T13:35:59;32.28;;;19.83;;
21743;SDS011;11034;48.556;9.342;2023-12-04T13:38:28;35.70;;;21.35;;
21743;SDS011;11034;48.556;9.342;2023-12-04T13:41:04;39.33;;;22.70;;
21743;SDS011;11034;48.556;9.342;2023-12-04T13:43:56;28.55;;;11.88;;
21743;SDS011;11034;48.556;9.342;2023-12-04T13:46:26;17.85;;;7.90;;
21743;SDS011;11034;48.556;9.342;2023-12-04T13:48:56;14.73;;;7.70;;
21743;SDS011;11034;48.556;9.342;2023-12-04T13:51:24;14.85;;;8.02;;
21743;SDS011;11034;48.556;9.342;2023-12-04T13:53:53;11.35;;;6.30;;
21743;SDS011;11034;48.556;9.342;2023-12-04T13:56:30;10.30;;;5.53;;
21743;SDS011;11034;48.556;9.342;2023-12-04T13:59:11;12.57;;;8.30;;
21743;SDS011;11034;48.556;9.342;2023-12-04T14:01:46;8.77;;;5.30;;
21743;SDS011;11034;48.556;9.342;2023-12-04T14:04:16;10.43;;;6.13;;
21743;SDS011;11034;48.556;9.342;2023-12-04T14:06:45;23.30;;;14.90;;
21743;SDS011;11034;48.556;9.342;2023-12-04T14:09:14;16.88;;;10.27;;
21743;SDS011;11034;48.556;9.342;2023-12-04T14:11:44;13.73;;;7.95;;
21743;SDS011;11034;48.556;9.342;2023-12-04T14:14:15;8.63;;;5.05;;
21743;SDS011;11034;48.556;9.342;2023-12-04T14:16:43;8.40;;;4.80;;
21743;SDS011;11034;48.556;9.342;2023-12-04T14:19:13;8.32;;;5.30;;
21743;SDS011;11034;48.556;9.342;2023-12-04T14:21:44;8.95;;;4.90;;
21743;SDS011;11034;48.556;9.342;2023-12-04T14:24:14;7.70;;;4.85;;
21743;SDS011;11034;48.556;9.342;2023-12-04T14:26:44;9.43;;;5.40;;
21743;SDS011;11034;48.556;9.342;2023-12-04T14:29:12;7.57;;;4.40;;
21743;SDS011;11034;48.556;9.342;2023-12-04T14:31:41;7.57;;;4.35;;
21743;SDS011;11034;48.556;9.342;2023-12-04T14:34:09;7.55;;;3.92;;
21743;SDS011;11034;48.556;9.342;2023-12-04T14:36:38;6.07;;;4.05;;
21743;SDS011;11034;48.556;9.342;2023-12-04T14:39:07;5.47;;;3.85;;
21743;SDS011;11034;48.556;9.342;2023-12-04T14:41:37;5.72;;;3.63;;
21743;SDS011;11034;48.556;9.342;2023-12-04T14:44:06;5.95;;;3.50;;
21743;SDS011;11034;48.556;9.342;2023-12-04T14:46:36;6.38;;;3.28;;